createdAt,value
2022-08-17T00:04:20.141Z,20.89
2022-08-17T00:09:23.447Z,20.84
2022-08-17T00:14:26.658Z,20.78
2022-08-17T00:19:30.068Z,20.72
2022-08-17T00:24:33.329Z,20.70
2022-08-17T00:29:36.588Z,20.67
2022-08-17T00:34:39.908Z,20.65
2022-08-17T00:39:43.378Z,20.63
2022-08-17T00:44:46.828Z,20.60
2022-08-17T00:49:50.039Z,20.58
2022-08-17T00:54:55.502Z,20.55
2022-08-17T01:00:05.520Z,20.54
2022-08-17T01:05:15.719Z,20.56
2022-08-17T01:11:00.084Z,20.59
2022-08-17T01:15:54.448Z,20.62
2022-08-17T01:21:01.819Z,20.64
2022-08-17T01:26:06.544Z,20.65
2022-08-17T01:31:10.794Z,20.66
2022-08-17T01:36:14.411Z,20.65
2022-08-17T01:41:19.267Z,20.63
2022-08-17T01:46:32.298Z,20.62
2022-08-17T01:51:35.917Z,20.60
2022-08-17T01:56:43.324Z,20.59
2022-08-17T02:01:50.734Z,20.60
2022-08-17T02:06:54.685Z,20.59
2022-08-17T02:12:00.218Z,20.57
2022-08-17T02:17:23.602Z,20.56
2022-08-17T02:22:28.958Z,20.55
2022-08-17T02:27:32.475Z,20.54
2022-08-17T02:32:35.990Z,20.54
2022-08-17T02:37:42.287Z,20.55
2022-08-17T02:42:46.343Z,20.54
2022-08-17T02:47:50.553Z,20.55
2022-08-17T02:53:01.404Z,20.56
2022-08-17T02:58:07.449Z,20.56
2022-08-17T03:03:13.982Z,20.55
2022-08-17T03:08:18.314Z,20.53
2022-08-17T03:13:22.033Z,20.51
2022-08-17T03:18:26.474Z,20.48
2022-08-17T03:23:32.221Z,20.45
2022-08-17T03:28:35.756Z,20.39
2022-08-17T03:33:39.065Z,20.34
2022-08-17T03:38:42.379Z,20.28
2022-08-17T03:43:46.303Z,20.24
2022-08-17T03:49:08.352Z,20.22
2022-08-17T03:54:41.260Z,20.23
2022-08-17T03:59:45.360Z,20.28
2022-08-17T04:04:52.561Z,20.36
2022-08-17T04:09:58.396Z,20.53
2022-08-17T04:15:02.116Z,21.14
2022-08-17T04:20:06.460Z,21.94
2022-08-17T04:25:17.084Z,22.73
2022-08-17T04:30:21.330Z,23.43
2022-08-17T04:35:29.045Z,23.94
2022-08-17T04:40:52.015Z,24.62
2022-08-17T04:46:01.061Z,25.53
2022-08-17T04:51:10.084Z,26.11
2022-08-17T04:56:16.648Z,26.85
2022-08-17T05:01:24.534Z,27.53
2022-08-17T05:06:29.357Z,27.94
2022-08-17T05:11:32.678Z,28.26
2022-08-17T05:16:35.990Z,28.64
2022-08-17T05:21:39.493Z,29.12
2022-08-17T05:26:43.119Z,29.46
2022-08-17T05:31:46.626Z,29.69
2022-08-17T05:36:49.944Z,29.76
2022-08-17T05:41:53.560Z,29.93
2022-08-17T05:46:59.792Z,30.11
2022-08-17T05:52:11.546Z,30.39
2022-08-17T05:57:53.752Z,30.98
2022-08-17T06:03:20.221Z,31.72
2022-08-17T06:08:23.636Z,32.41
2022-08-17T06:13:57.565Z,33.12
2022-08-17T06:19:06.650Z,33.73
2022-08-17T06:24:29.086Z,34.59
2022-08-17T06:29:46.203Z,35.31
2022-08-17T06:34:50.032Z,35.48
2022-08-17T06:40:02.697Z,35.23
2022-08-17T06:45:20.468Z,35.00
2022-08-17T06:51:32.119Z,35.02
2022-08-17T06:56:53.060Z,35.45
2022-08-17T07:02:05.980Z,36.11
2022-08-17T07:07:30.178Z,36.71
2022-08-17T07:12:39.577Z,37.32
2022-08-17T07:17:47.563Z,38.11
2022-08-17T07:23:25.170Z,38.98
2022-08-17T07:28:35.202Z,40.04
2022-08-17T07:34:17.052Z,40.79
2022-08-17T07:39:36.612Z,41.34
2022-08-17T07:45:43.955Z,41.95
2022-08-17T07:51:15.326Z,42.04
2022-08-17T07:57:14.650Z,42.40
2022-08-17T08:02:45.529Z,42.02
2022-08-17T08:07:56.193Z,41.59
2022-08-17T08:13:34.206Z,41.53
2022-08-17T08:18:55.361Z,41.29
2022-08-17T08:24:38.696Z,40.82
2022-08-17T08:30:00.752Z,41.29
2022-08-17T08:35:22.998Z,40.70
2022-08-17T08:40:54.990Z,40.24
2022-08-17T08:46:23.998Z,39.81
2022-08-17T08:52:05.928Z,39.73
2022-08-17T08:57:34.345Z,40.41
2022-08-17T09:03:09.054Z,40.60
2022-08-17T09:08:24.821Z,40.65
2022-08-17T09:13:46.055Z,40.25
2022-08-17T09:19:05.744Z,39.88
2022-08-17T09:24:23.744Z,39.22
2022-08-17T09:35:36.701Z,38.92
2022-08-17T09:41:03.535Z,38.13
2022-08-17T09:46:20.619Z,36.93
2022-08-17T09:51:37.037Z,35.86
2022-08-17T09:57:00.821Z,34.92
2022-08-17T10:03:02.251Z,33.55
2022-08-17T10:08:37.358Z,32.82
2022-08-17T10:14:36.535Z,32.30
2022-08-17T10:20:02.347Z,32.16
2022-08-17T10:25:53.599Z,31.84
2022-08-17T10:37:06.525Z,32.18
2022-08-17T10:42:56.941Z,32.29
2022-08-17T10:48:28.512Z,32.36
2022-08-17T10:53:52.208Z,32.53
2022-08-17T10:58:59.480Z,32.44
2022-08-17T11:04:46.696Z,32.54
2022-08-17T11:10:24.672Z,32.55
2022-08-17T11:16:30.490Z,32.48
2022-08-17T11:22:12.774Z,32.64
2022-08-17T11:27:28.272Z,33.13
2022-08-17T11:32:47.443Z,33.16
2022-08-17T11:39:05.981Z,32.69
2022-08-17T11:44:24.706Z,32.19
2022-08-17T11:49:58.738Z,32.04
2022-08-17T11:55:17.995Z,32.16
2022-08-17T12:00:52.266Z,32.21
2022-08-17T12:06:30.202Z,32.13
2022-08-17T12:12:11.090Z,32.12
2022-08-17T12:17:11.922Z,32.28
2022-08-17T12:22:53.635Z,32.14
2022-08-17T12:28:05.980Z,32.18
2022-08-17T12:33:24.986Z,32.39
2022-08-17T12:38:33.993Z,32.59
2022-08-17T12:43:37.597Z,32.44
2022-08-17T12:48:58.765Z,32.26
2022-08-17T12:54:03.479Z,31.94
2022-08-17T12:59:11.094Z,31.72
2022-08-17T13:04:16.804Z,31.47
2022-08-17T13:09:35.732Z,31.24
2022-08-17T13:14:46.924Z,31.08
2022-08-17T13:19:51.531Z,30.90
2022-08-17T13:24:58.563Z,30.78
2022-08-17T13:30:12.509Z,30.78
2022-08-17T13:35:29.748Z,30.93
2022-08-17T13:40:49.268Z,30.92
2022-08-17T13:45:53.379Z,30.81
2022-08-17T13:50:56.625Z,30.74
2022-08-17T13:56:03.795Z,30.81
2022-08-17T14:01:32.270Z,31.03
2022-08-17T14:06:53.701Z,31.30
2022-08-17T14:11:58.985Z,31.38
2022-08-17T14:17:02.409Z,31.33
2022-08-17T14:22:11.842Z,31.24
2022-08-17T14:27:17.932Z,31.19
2022-08-17T14:32:28.411Z,31.03
2022-08-17T14:37:34.721Z,30.88
2022-08-17T14:42:41.643Z,30.62
2022-08-17T14:47:45.216Z,30.36
2022-08-17T14:52:49.344Z,30.13
2022-08-17T14:57:53.523Z,29.95
2022-08-17T15:03:00.243Z,29.92
2022-08-17T15:08:04.806Z,29.90
2022-08-17T15:13:24.496Z,29.89
2022-08-17T15:18:27.908Z,29.95
2022-08-17T15:23:32.343Z,29.97
2022-08-17T15:28:35.764Z,30.02
2022-08-17T15:33:39.379Z,30.00
2022-08-17T15:38:44.558Z,29.91
2022-08-17T15:43:52.655Z,29.78
2022-08-17T15:49:00.368Z,29.71
2022-08-17T15:54:18.854Z,29.71
2022-08-17T15:59:26.444Z,29.77
2022-08-17T16:04:31.673Z,29.82
2022-08-17T16:09:35.737Z,29.86
2022-08-17T16:14:40.064Z,29.89
2022-08-17T16:19:43.689Z,29.88
2022-08-17T16:24:56.779Z,29.83
2022-08-17T16:30:01.416Z,29.69
2022-08-17T16:35:08.476Z,29.49
2022-08-17T16:40:14.939Z,29.25
2022-08-17T16:45:28.101Z,29.02
2022-08-17T16:50:32.838Z,28.80
2022-08-17T16:55:36.971Z,28.58
2022-08-17T17:00:42.528Z,28.38
2022-08-17T17:05:57.823Z,28.18
2022-08-17T17:11:11.276Z,27.95
2022-08-17T17:16:21.921Z,27.69
2022-08-17T17:21:36.225Z,27.46
2022-08-17T17:26:39.648Z,27.26
2022-08-17T17:32:17.426Z,27.08
2022-08-17T17:37:27.836Z,26.88
2022-08-17T17:42:32.996Z,26.71
2022-08-17T17:47:37.684Z,26.53
2022-08-17T17:53:02.651Z,26.35
2022-08-17T17:58:12.106Z,26.17
2022-08-17T18:03:45.116Z,26.02
2022-08-17T18:09:06.550Z,25.86
2022-08-17T18:14:15.133Z,25.68
2022-08-17T18:19:20.886Z,25.51
2022-08-17T18:24:37.963Z,25.36
2022-08-17T18:29:46.050Z,25.23
2022-08-17T18:35:15.431Z,25.10
2022-08-17T18:40:19.808Z,24.99
2022-08-17T18:45:34.445Z,24.93
2022-08-17T18:50:41.607Z,24.90
2022-08-17T18:55:46.462Z,24.86
2022-08-17T19:00:52.425Z,24.79
2022-08-17T19:06:25.377Z,24.71
2022-08-17T19:11:34.826Z,24.62
2022-08-17T19:16:50.733Z,24.52
2022-08-17T19:22:06.639Z,24.41
2022-08-17T19:27:46.416Z,24.28
2022-08-17T19:32:54.292Z,24.14
2022-08-17T19:38:13.557Z,24.06
2022-08-17T19:43:40.325Z,23.95
2022-08-17T19:48:54.218Z,23.81
2022-08-17T19:54:15.772Z,23.67
2022-08-17T20:00:14.109Z,23.54
2022-08-17T20:05:29.763Z,23.42
2022-08-17T20:10:54.653Z,23.37
2022-08-17T20:15:59.022Z,23.32
2022-08-17T20:21:20.041Z,23.29
2022-08-17T20:26:29.287Z,23.27
2022-08-17T20:31:56.368Z,23.24
2022-08-17T20:37:13.400Z,23.17
2022-08-17T20:42:22.950Z,23.09
2022-08-17T20:47:33.209Z,23.00
2022-08-17T20:52:45.444Z,22.91
2022-08-17T20:57:49.296Z,22.81
2022-08-17T21:03:50.672Z,22.70
2022-08-17T21:09:13.407Z,22.59
2022-08-17T21:14:25.728Z,22.51
2022-08-17T21:20:00.506Z,22.42
2022-08-17T21:25:22.940Z,22.31
2022-08-17T21:30:28.192Z,22.20
2022-08-17T21:35:47.564Z,22.11
2022-08-17T21:40:53.758Z,22.00
2022-08-17T21:46:08.735Z,21.88
2022-08-17T21:51:19.327Z,21.79
2022-08-17T21:56:39.058Z,21.70
2022-08-17T22:01:43.459Z,21.62
2022-08-17T22:06:52.354Z,21.54
2022-08-17T22:12:03.401Z,21.43
2022-08-17T22:17:16.121Z,21.34
2022-08-17T22:22:34.383Z,21.26
2022-08-17T22:28:09.138Z,21.21
2022-08-17T22:33:40.605Z,21.14
2022-08-17T22:38:44.016Z,21.06
2022-08-17T22:43:48.557Z,20.98
2022-08-17T22:48:57.845Z,20.93
2022-08-17T22:54:21.907Z,20.85
2022-08-17T22:59:46.742Z,20.73
2022-08-17T23:04:54.434Z,20.58
2022-08-17T23:09:57.747Z,20.50
2022-08-17T23:15:02.299Z,20.43
2022-08-17T23:20:09.370Z,20.38
2022-08-17T23:25:18.122Z,20.34
2022-08-17T23:30:25.836Z,20.29
2022-08-17T23:35:39.335Z,20.22
2022-08-17T23:40:44.233Z,20.12
2022-08-17T23:45:47.551Z,20.00
2022-08-17T23:50:52.086Z,19.87
2022-08-17T23:56:02.722Z,19.77
